Puropanmaru No.3 — JD3322 — position and weather

sailwx.info

Track history (hours):
 
Tides and Currents Weather Stations Pressure Air Temp Water Temp Dewpoint Dewpoint Depression Visibility Wind Speed Wind Dir Waves Ship Positions

Puropanmaru No.3

Last reported at 2016-Jul-26 10:30 UTC. Time now 2016-Jul-27 03:44 UTC.
Position N 35°11' E 139°45'.

Length 68 m; draft 4.5 m.

Type: Tanker. MMSI: 431003365.

Date/timePositionNaut miles runAvg speedWind from/ knotsBaromVisibWave heightAir tempDewpointWater temp
2016-Jul-26 10:30N 35°11' E 139°45'1111.4
2016-Jul-26 09:33N 35°22' E 139°42'9 8.8
2016-Jul-26 08:31N 35°29' E 139°49'0 0.1
2016-Jul-26 07:31N 35°29' E 139°49'2 2.5
2016-Jul-26 06:33N 35°31' E 139°46'0 0.0
2016-Jul-26 05:33N 35°31' E 139°46'0 0.0
2016-Jul-26 04:27N 35°31' E 139°46'0 0.0
2016-Jul-26 03:33N 35°31' E 139°46'3 3.3
2016-Jul-26 02:33N 35°30' E 139°50'0 0.0
2016-Jul-26 01:31N 35°30' E 139°50'0 0.0
2016-Jul-26 00:31N 35°30' E 139°50'0 0.0
2016-Jul-25 23:31N 35°30' E 139°50'0 0.0
2016-Jul-25 22:31N 35°30' E 139°50'0 0.0
2016-Jul-25 21:31N 35°30' E 139°50'0 0.0
2016-Jul-25 20:31N 35°30' E 139°50'0 0.0
2016-Jul-25 19:31N 35°30' E 139°50'0 0.0
2016-Jul-25 18:31N 35°30' E 139°50'0 0.1
2016-Jul-25 17:31N 35°30' E 139°50'0 0.1
2016-Jul-25 16:31N 35°30' E 139°50'0 0.0
2016-Jul-25 15:31N 35°30' E 139°50'0 0.0
2016-Jul-25 14:31N 35°30' E 139°50'0 0.0
2016-Jul-25 13:31N 35°30' E 139°50'0 0.0
2016-Jul-25 12:31N 35°30' E 139°50'0 0.0
2016-Jul-25 11:31N 35°30' E 139°50'0 0.1
2016-Jul-25 10:29N 35°30' E 139°50'1011.4
2016-Jul-25 09:33N 35°21' E 139°45'1212.1
2016-Jul-25 08:33N 35°09' E 139°46'  
2016-Jul-19 11:30N 35°03' E 139°34'1212.0
2016-Jul-19 10:28N 35°11' E 139°46'1112.4
2016-Jul-19 09:33N 35°22' E 139°42'1212.5
2016-Jul-19 08:33N 35°31' E 139°54'8 8.0
2016-Jul-19 07:33N 35°32' E 140°03'0 0.0
2016-Jul-19 04:33N 35°32' E 140°03'1 0.5
2016-Jul-19 03:33N 35°32' E 140°03'7 7.4
2016-Jul-19 02:33N 35°28' E 139°55'0 0.0
2016-Jul-19 01:33N 35°28' E 139°55'0 0.0
2016-Jul-19 00:34N 35°28' E 139°55'0 0.0
2016-Jul-18 23:30N 35°28' E 139°55'0 0.0
2016-Jul-18 22:31N 35°28' E 139°55'0 0.0
2016-Jul-18 21:30N 35°28' E 139°55'0 0.0
2016-Jul-18 20:24N 35°28' E 139°55'0 0.0
2016-Jul-18 19:33N 35°28' E 139°55'0 0.0
2016-Jul-18 18:27N 35°28' E 139°55'0 0.0
2016-Jul-18 17:33N 35°28' E 139°55'0 0.0
2016-Jul-18 16:33N 35°28' E 139°55'0 0.0
2016-Jul-18 15:30N 35°28' E 139°55'0 0.0
2016-Jul-18 14:33N 35°28' E 139°55'0 0.0
2016-Jul-18 13:33N 35°28' E 139°55'0 0.0
2016-Jul-18 12:27N 35°28' E 139°55'0 0.0
2016-Jul-18 11:33N 35°28' E 139°55'0 0.0
2016-Jul-18 10:33N 35°28' E 139°55'0 0.0
2016-Jul-18 09:30N 35°28' E 139°55'0 0.0
2016-Jul-18 08:33N 35°28' E 139°55'0 0.0
2016-Jul-18 07:30N 35°28' E 139°55'7 7.8
2016-Jul-18 06:33N 35°25' E 139°47'1211.9
2016-Jul-18 05:33N 35°13' E 139°47'  
Track history (hours):
 
Tides and Currents Weather Stations Pressure Air Temp Water Temp Dewpoint Dewpoint Depression Visibility Wind Speed Wind Dir Waves Ship Positions

Puropanmaru No.3

Last reported at 2016-Jul-26 10:30 UTC. Time now 2016-Jul-27 03:44 UTC.
Position N 35°11' E 139°45'.

Length 68 m; draft 4.5 m.

Type: Tanker. MMSI: 431003365.

Date/timePositionNaut miles runAvg speedWind from/ knotsBaromVisibWave heightAir tempDewpointWater temp
2016-Jul-26 10:30N 35°11' E 139°45'1111.4
2016-Jul-26 09:33N 35°22' E 139°42'9 8.8
2016-Jul-26 08:31N 35°29' E 139°49'0 0.1
2016-Jul-26 07:31N 35°29' E 139°49'2 2.5
2016-Jul-26 06:33N 35°31' E 139°46'0 0.0
2016-Jul-26 05:33N 35°31' E 139°46'0 0.0
2016-Jul-26 04:27N 35°31' E 139°46'0 0.0
2016-Jul-26 03:33N 35°31' E 139°46'3 3.3
2016-Jul-26 02:33N 35°30' E 139°50'0 0.0
2016-Jul-26 01:31N 35°30' E 139°50'0 0.0
2016-Jul-26 00:31N 35°30' E 139°50'0 0.0
2016-Jul-25 23:31N 35°30' E 139°50'0 0.0
2016-Jul-25 22:31N 35°30' E 139°50'0 0.0
2016-Jul-25 21:31N 35°30' E 139°50'0 0.0
2016-Jul-25 20:31N 35°30' E 139°50'0 0.0
2016-Jul-25 19:31N 35°30' E 139°50'0 0.0
2016-Jul-25 18:31N 35°30' E 139°50'0 0.1
2016-Jul-25 17:31N 35°30' E 139°50'0 0.1
2016-Jul-25 16:31N 35°30' E 139°50'0 0.0
2016-Jul-25 15:31N 35°30' E 139°50'0 0.0
2016-Jul-25 14:31N 35°30' E 139°50'0 0.0
2016-Jul-25 13:31N 35°30' E 139°50'0 0.0
2016-Jul-25 12:31N 35°30' E 139°50'0 0.0
2016-Jul-25 11:31N 35°30' E 139°50'0 0.1
2016-Jul-25 10:29N 35°30' E 139°50'1011.4
2016-Jul-25 09:33N 35°21' E 139°45'1212.1
2016-Jul-25 08:33N 35°09' E 139°46'  
2016-Jul-19 11:30N 35°03' E 139°34'1212.0
2016-Jul-19 10:28N 35°11' E 139°46'1112.4
2016-Jul-19 09:33N 35°22' E 139°42'1212.5
2016-Jul-19 08:33N 35°31' E 139°54'8 8.0
2016-Jul-19 07:33N 35°32' E 140°03'0 0.0
2016-Jul-19 04:33N 35°32' E 140°03'1 0.5
2016-Jul-19 03:33N 35°32' E 140°03'7 7.4
2016-Jul-19 02:33N 35°28' E 139°55'0 0.0
2016-Jul-19 01:33N 35°28' E 139°55'0 0.0
2016-Jul-19 00:34N 35°28' E 139°55'0 0.0
2016-Jul-18 23:30N 35°28' E 139°55'0 0.0
2016-Jul-18 22:31N 35°28' E 139°55'0 0.0
2016-Jul-18 21:30N 35°28' E 139°55'0 0.0
2016-Jul-18 20:24N 35°28' E 139°55'0 0.0
2016-Jul-18 19:33N 35°28' E 139°55'0 0.0
2016-Jul-18 18:27N 35°28' E 139°55'0 0.0
2016-Jul-18 17:33N 35°28' E 139°55'0 0.0
2016-Jul-18 16:33N 35°28' E 139°55'0 0.0
2016-Jul-18 15:30N 35°28' E 139°55'0 0.0
2016-Jul-18 14:33N 35°28' E 139°55'0 0.0
2016-Jul-18 13:33N 35°28' E 139°55'0 0.0
2016-Jul-18 12:27N 35°28' E 139°55'0 0.0
2016-Jul-18 11:33N 35°28' E 139°55'0 0.0
2016-Jul-18 10:33N 35°28' E 139°55'0 0.0
2016-Jul-18 09:30N 35°28' E 139°55'0 0.0
2016-Jul-18 08:33N 35°28' E 139°55'0 0.0
2016-Jul-18 07:30N 35°28' E 139°55'7 7.8
2016-Jul-18 06:33N 35°25' E 139°47'1211.9
2016-Jul-18 05:33N 35°13' E 139°47'  

Dump ship's entire track history